Aviation Digital Data Service (ADDS)

Output produced by METARs form (1212 UTC 24 March 2017)
found at http://www.aviationweather.gov/adds/metars/
 
METAR text: KSAR 241155Z AUTO 18009G15KT 10SM CLR 16/12 A3002 RMK AO2 70019 T01640117 10177 20103
Conditions at: KSAR (SPARTA , IL, US) observed 1155 UTC 24 March 2017
Temperature: 16.4°C (62°F)
Dewpoint: 11.7°C (53°F) [RH = 74%]
Pressure (altimeter): 30.02 inches Hg (1016.7 mb)
Winds: from the S (180 degrees) at 10 MPH (9 knots; 4.7 m/s)
gusting to 17 MPH (15 knots; 7.8 m/s)
Visibility: 10 or more miles (16+ km)
Ceiling: at least 12,000 feet AGL
Clouds: sky clear below 12,000 feet AGL
Weather: automated observation with no human augmentation;
there may or may not be significant weather present at this time